Terminal Aerodrome Forecast
Issued by NWS Quad Cities IA IL

Home | Current Version | Previous Version | Text Only | Print | Product List | Glossary On
Versions: 1 2 3 4 5 6 7 8 9 10 11 12 13 14 15 16
000
FTUS43 KDVN 191700
TAFMLI
TAF
KMLI 191722Z 1918/2018 18012G18KT P6SM SCT200
     FM200000 18009KT P6SM SCT250
     FM200600 20010KT P6SM FEW060 BKN250
     FM201100 22010KT 6SM BR VCSH SCT035 BKN080
     FM201500 25011KT P6SM BKN050=

USA.gov is the U.S. government's official web portal to all federal, state and local government web resources and services.